1876 Hurricane NOT_NAMED (1876268N12300)


IBTrACS version v04r00. Visit IBTrACS website for data access.
Please direct all questions to the IBTrACS Q and A forum

Storm track - Intensity - Wind Radii - Intensity Data - Source Data - All data

Summary Information

Storm ID 1876268N12300
Start Sep 24 06Z
Max Intensity 95 kt (Oct 2 06Z)
End Oct 2 09Z
ATCF IDs
Track status Best track data.
Spur track This storm is a spur track associated with the main storm: 1876273N14301

Storm track plot

Map of storm track

Intensity plots

Map of storm track

Radial wind information

No radial wind information for this storm


Position and Intensity Table

BASIN ISO_TIME_________ NATURE LAT LON MLC WIND MLC PRES
degrees north degrees east kts mb
NA 1876-09-24 06:00:00 TS 11.50 -60.20 45
NA 09:00:00 TS 11.71 -60.55 45
NA 12:00:00 TS 11.90 -60.90 45
NA 15:00:00 TS 12.07 -61.26 45
NA 18:00:00 TS 12.30 -61.60 45 1002
NA 21:00:00 TS 12.67 -61.91 45
NA 1876-09-25 00:00:00 TS 13.10 -62.20 45
NA 03:00:00 TS 13.50 -62.50 45
NA 06:00:00 TS 13.90 -62.80 45
NA 09:00:00 TS 14.30 -63.10 45
NA 12:00:00 TS 14.70 -63.40 45
NA 15:00:00 TS 15.15 -63.71 45
NA 18:00:00 TS 15.50 -64.00 45
NA 21:00:00 TS 15.61 -64.26 45
NA 1876-09-26 00:00:00 TS 15.60 -64.50 45
NA 03:00:00 TS 15.60 -64.75 45
NA 06:00:00 TS 15.60 -65.00 45
NA 09:00:00 TS 15.65 -65.25 45
NA 12:00:00 TS 15.70 -65.50 45
NA 15:00:00 TS 15.71 -65.75 45
NA 18:00:00 TS 15.70 -66.00 45
NA 21:00:00 TS 15.65 -66.26 45
NA 1876-09-27 00:00:00 TS 15.60 -66.50 45
NA 03:00:00 TS 15.60 -66.70 45
NA 06:00:00 TS 15.60 -66.90 45
NA 09:00:00 TS 15.55 -67.15 45
NA 12:00:00 TS 15.50 -67.40 45
NA 15:00:00 TS 15.50 -67.59 45
NA 18:00:00 TS 15.50 -67.80 45
NA 21:00:00 TS 15.45 -68.09 45
NA 1876-09-28 00:00:00 TS 15.40 -68.40 45
NA 03:00:00 TS 15.40 -68.70 47
NA 06:00:00 TS 15.40 -69.00 50
NA 09:00:00 TS 15.35 -69.30 50
NA 12:00:00 TS 15.30 -69.60 50
NA 15:00:00 TS 15.30 -69.90 50
NA 18:00:00 TS 15.30 -70.20 50
NA 21:00:00 TS 15.26 -70.50 50
NA 1876-09-29 00:00:00 TS 15.20 -70.80 50
NA 03:00:00 TS 15.15 -71.10 52
NA 06:00:00 TS 15.10 -71.40 55
NA 09:00:00 TS 15.04 -71.71 55
NA 12:00:00 TS 15.00 -72.00 55
NA 15:00:00 TS 15.00 -72.24 55
NA 18:00:00 TS 15.00 -72.50 55
NA 21:00:00 TS 14.96 -72.84 55
NA 1876-09-30 00:00:00 TS 14.90 -73.20 55
NA 03:00:00 TS 14.85 -73.51 55
NA 06:00:00 TS 14.80 -73.80 55
NA 09:00:00 TS 14.75 -74.10 55
NA 12:00:00 TS 14.70 -74.40 55
NA 15:00:00 TS 14.66 -74.69 57
NA 18:00:00 TS 14.60 -75.00 60
NA 21:00:00 TS 14.46 -75.34 65
NA 1876-10-01 00:00:00 TS 14.30 -75.70 70
NA 03:00:00 TS 14.19 -76.05 72
NA 06:00:00 TS 14.10 -76.40 75
NA 09:00:00 TS 14.00 -76.76 77
NA 12:00:00 TS 13.90 -77.10 80
NA 15:00:00 TS 13.79 -77.39 82
NA 18:00:00 TS 13.70 -77.70 85
NA 21:00:00 TS 13.64 -78.09 87
NA 1876-10-02 00:00:00 TS 13.60 -78.50 90
NA 03:00:00 TS 13.54 -78.85 92
NA 06:00:00 TS 13.50 -79.20 95
NA 09:00:00 TS 13.50 -79.60

Source Information

Agency Information
USA
TOKYO
CMA
HKO
NEWDELHI
REUNION
BOM
NADI
WELLINGTON
DS824
TD9636
TD9635
NEUMANN
MLC

All available IBTrACS Data

SEASON BASIN SUBBASIN ISO_TIME_________ NATURE LAT LON DIST2LAND LANDFALL IFLAG USA SSHS MLC LAT MLC LON MLC CLASS MLC WIND MLC PRES STORM SPEED STORM DIR
Year degrees north degrees east km km 1 degrees north degrees east kts mb kts degrees
1876 NA CS 1876-09-24 06:00:00 TS 11.50 -60.20 125 117 _____________O -1 11.50 -60.20 TS 45 8 302
1876 NA CS 09:00:00 TS 11.71 -60.55 124 120 _____________P -1 11.71 -60.55 TS 45 8 300
1876 NA CS 12:00:00 TS 11.90 -60.90 134 134 _____________O -1 11.90 -60.90 TS 45 8 297
1876 NA CS 15:00:00 TS 12.07 -61.26 156 156 _____________P -1 12.07 -61.26 TS 45 8 300
1876 NA CS 18:00:00 TS 12.30 -61.60 179 179 _____________O -1 12.30 -61.60 TS 45 1002 9 313
1876 NA CS 21:00:00 TS 12.67 -61.91 225 225 _____________P -1 12.67 -61.91 TS 45 10 324
1876 NA CS 1876-09-25 00:00:00 TS 13.10 -62.20 268 268 _____________O -1 13.10 -62.20 TS 45 10 325
1876 NA CS 03:00:00 TS 13.50 -62.50 313 313 _____________P -1 13.50 -62.50 TS 45 10 324
1876 NA CS 06:00:00 TS 13.90 -62.80 358 358 _____________O -1 13.90 -62.80 TS 45 10 324
1876 NA CS 09:00:00 TS 14.30 -63.10 403 403 _____________P -1 14.30 -63.10 TS 45 10 324
1876 NA CS 12:00:00 TS 14.70 -63.40 449 394 _____________O -1 14.70 -63.40 TS 45 10 325
1876 NA CS 15:00:00 TS 15.15 -63.71 385 339 _____________P -1 15.15 -63.71 TS 45 10 324
1876 NA CS 18:00:00 TS 15.50 -64.00 339 318 _____________O -1 15.50 -64.00 TS 45 7 311
1876 NA CS 21:00:00 TS 15.61 -64.26 312 302 _____________P -1 15.61 -64.26 TS 45 5 282
1876 NA CS 1876-09-26 00:00:00 TS 15.60 -64.50 302 293 _____________O -1 15.60 -64.50 TS 45 5 269
1876 NA CS 03:00:00 TS 15.60 -64.75 288 281 _____________P -1 15.60 -64.75 TS 45 5 270
1876 NA CS 06:00:00 TS 15.60 -65.00 281 276 _____________O -1 15.60 -65.00 TS 45 5 276
1876 NA CS 09:00:00 TS 15.65 -65.25 276 257 _____________P -1 15.65 -65.25 TS 45 5 282
1876 NA CS 12:00:00 TS 15.70 -65.50 257 251 _____________O -1 15.70 -65.50 TS 45 5 278
1876 NA CS 15:00:00 TS 15.71 -65.75 251 247 _____________P -1 15.71 -65.75 TS 45 5 270
1876 NA CS 18:00:00 TS 15.70 -66.00 247 246 _____________O -1 15.70 -66.00 TS 45 5 262
1876 NA CS 21:00:00 TS 15.65 -66.26 246 257 _____________P -1 15.65 -66.26 TS 45 5 258
1876 NA CS 1876-09-27 00:00:00 TS 15.60 -66.50 259 258 _____________O -1 15.60 -66.50 TS 45 4 263
1876 NA CS 03:00:00 TS 15.60 -66.70 258 257 _____________P -1 15.60 -66.70 TS 45 4 270
1876 NA CS 06:00:00 TS 15.60 -66.90 257 257 _____________O -1 15.60 -66.90 TS 45 4 263
1876 NA CS 09:00:00 TS 15.55 -67.15 257 257 _____________P -1 15.55 -67.15 TS 45 5 258
1876 NA CS 12:00:00 TS 15.50 -67.40 269 269 _____________O -1 15.50 -67.40 TS 45 4 263
1876 NA CS 15:00:00 TS 15.50 -67.59 271 271 _____________P -1 15.50 -67.59 TS 45 4 270
1876 NA CS 18:00:00 TS 15.50 -67.80 276 276 _____________O -1 15.50 -67.80 TS 45 5 264
1876 NA CS 21:00:00 TS 15.45 -68.09 285 285 _____________P -1 15.45 -68.09 TS 45 6 260
1876 NA CS 1876-09-28 00:00:00 TS 15.40 -68.40 307 307 _____________O -1 15.40 -68.40 TS 45 6 265
1876 NA CS 03:00:00 TS 15.40 -68.70 313 313 _____________P -1 15.40 -68.70 TS 47 6 270
1876 NA CS 06:00:00 TS 15.40 -69.00 314 314 _____________O -1 15.40 -69.00 TS 50 6 265
1876 NA CS 09:00:00 TS 15.35 -69.30 328 321 _____________P -1 15.35 -69.30 TS 50 6 260
1876 NA CS 12:00:00 TS 15.30 -69.60 321 303 _____________O -1 15.30 -69.60 TS 50 6 265
1876 NA CS 15:00:00 TS 15.30 -69.90 303 287 _____________P -1 15.30 -69.90 TS 50 6 270
1876 NA CS 18:00:00 TS 15.30 -70.20 287 274 _____________O -1 15.30 -70.20 TS 50 6 266
1876 NA CS 21:00:00 TS 15.26 -70.50 274 274 _____________P -1 15.26 -70.50 TS 50 6 260
1876 NA CS 1876-09-29 00:00:00 TS 15.20 -70.80 276 270 _____________O -1 15.20 -70.80 TS 50 6 259
1876 NA CS 03:00:00 TS 15.15 -71.10 281 279 _____________P -1 15.15 -71.10 TS 52 6 260
1876 NA CS 06:00:00 TS 15.10 -71.40 279 279 _____________O -1 15.10 -71.40 TS 55 6 260
1876 NA CS 09:00:00 TS 15.04 -71.71 291 291 _____________P -1 15.04 -71.71 TS 55 6 260
1876 NA CS 12:00:00 TS 15.00 -72.00 292 292 _____________O -1 15.00 -72.00 TS 55 5 265
1876 NA CS 15:00:00 TS 15.00 -72.24 296 296 _____________P -1 15.00 -72.24 TS 55 5 270
1876 NA CS 18:00:00 TS 15.00 -72.50 303 303 _____________O -1 15.00 -72.50 TS 55 6 266
1876 NA CS 21:00:00 TS 14.96 -72.84 314 306 _____________P -1 14.96 -72.84 TS 55 7 262
1876 NA CS 1876-09-30 00:00:00 TS 14.90 -73.20 318 318 _____________O -1 14.90 -73.20 TS 55 7 260
1876 NA CS 03:00:00 TS 14.85 -73.51 323 323 _____________P -1 14.85 -73.51 TS 55 6 260
1876 NA CS 06:00:00 TS 14.80 -73.80 338 338 _____________O -1 14.80 -73.80 TS 55 6 260
1876 NA CS 09:00:00 TS 14.75 -74.10 347 347 _____________P -1 14.75 -74.10 TS 55 6 260
1876 NA CS 12:00:00 TS 14.70 -74.40 367 367 _____________O -1 14.70 -74.40 TS 55 6 262
1876 NA CS 15:00:00 TS 14.66 -74.69 379 379 _____________P -1 14.66 -74.69 TS 57 6 260
1876 NA CS 18:00:00 TS 14.60 -75.00 390 382 _____________O -1 14.60 -75.00 TS 60 7 252
1876 NA CS 21:00:00 TS 14.46 -75.34 388 377 _____________P -1 14.46 -75.34 TS 65 7 246
1876 NA CS 1876-10-01 00:00:00 TS 14.30 -75.70 379 374 _____________O -1 14.30 -75.70 HU 70 7 249
1876 NA CS 03:00:00 TS 14.19 -76.05 377 374 _____________P -1 14.19 -76.05 HU 72 7 254
1876 NA CS 06:00:00 TS 14.10 -76.40 383 383 _____________O -1 14.10 -76.40 HU 75 7 254
1876 NA CS 09:00:00 TS 14.00 -76.76 393 393 _____________P -1 14.00 -76.76 HU 77 7 254
1876 NA CS 12:00:00 TS 13.90 -77.10 398 394 _____________O -1 13.90 -77.10 HU 80 7 251
1876 NA CS 15:00:00 TS 13.79 -77.39 406 403 _____________P -1 13.79 -77.39 HU 82 6 251
1876 NA CS 18:00:00 TS 13.70 -77.70 416 416 _____________O -1 13.70 -77.70 HU 85 7 258
1876 NA CS 21:00:00 TS 13.64 -78.09 437 437 _____________P -1 13.64 -78.09 HU 87 8 263
1876 NA CS 1876-10-02 00:00:00 TS 13.60 -78.50 463 449 _____________O -1 13.60 -78.50 HU 90 7 262
1876 NA CS 03:00:00 TS 13.54 -78.85 448 441 _____________P -1 13.55 -78.87 HU 92 7 262
1876 NA CS 06:00:00 TS 13.50 -79.20 441 398 _____________O -1 13.50 -79.20 HU 95 7 267
1876 NA CS 09:00:00 TS 13.50 -79.60 398 ______________ -1 HU 8 270